Time;durP1;ratioP1;P1;durP2;ratioP2;P2;SDS_P1;SDS_P2;PMS_P1;PMS_P2;Temp;Humidity;BMP_temperature;BMP_pressure;BME280_temperature;BME280_humidity;BME280_pressure;Samples;Min_cycle;Max_cycle;Signal;HPM_P1;HPM_P2
2022/04/17 00:00:31;;;;;;;12.03;8.17;;;2.00;99.90;1.60;102191.00;;;;4894651;28;92776;-68
2022/04/17 00:03:09;;;;;;;13.10;5.37;;;1.90;99.90;1.50;102191.00;;;;4877411;28;92886;-68
2022/04/17 00:05:36;;;;;;;6.27;4.43;;;1.90;99.90;1.50;102191.00;;;;4856323;28;122211;-68
2022/04/17 00:08:02;;;;;;;4.50;3.73;;;1.80;99.90;1.40;102190.00;;;;4865017;28;94139;-68
2022/04/17 00:10:28;;;;;;;7.50;4.57;;;1.70;99.90;1.30;102187.00;;;;4858677;28;94093;-68
2022/04/17 00:12:53;;;;;;;4.67;3.27;;;1.60;99.90;1.20;102180.00;;;;4857165;28;108522;-68
2022/04/17 00:15:19;;;;;;;4.80;3.53;;;1.60;99.90;1.20;102179.00;;;;4867210;28;123590;-68
2022/04/17 00:17:45;;;;;;;3.83;3.47;;;1.50;99.90;1.20;102179.00;;;;4876665;28;101767;-68
2022/04/17 00:20:12;;;;;;;6.37;3.73;;;1.50;99.90;1.10;102186.00;;;;4882193;28;93967;-68
2022/04/17 00:22:38;;;;;;;3.97;3.57;;;1.50;99.90;1.10;102191.00;;;;4876244;28;92852;-68
2022/04/17 00:25:07;;;;;;;11.57;8.23;;;1.40;99.90;1.00;102176.00;;;;4876240;28;108504;-68
2022/04/17 00:27:33;;;;;;;5.23;3.80;;;1.40;99.90;1.00;102175.00;;;;4875753;28;93887;-68
2022/04/17 00:29:59;;;;;;;3.90;3.53;;;1.30;99.90;1.00;102170.00;;;;4877516;28;92820;-68
2022/04/17 00:32:25;;;;;;;4.70;3.87;;;1.30;99.90;0.80;102171.00;;;;4875638;28;92713;-68
2022/04/17 00:34:51;;;;;;;5.90;3.33;;;1.20;99.90;0.80;102174.00;;;;4876655;28;94400;-68
2022/04/17 00:37:16;;;;;;;6.43;3.40;;;1.10;99.90;0.80;102167.00;;;;4875661;28;122976;-68
2022/04/17 00:39:42;;;;;;;3.80;3.50;;;1.10;99.90;0.80;102167.00;;;;4868213;28;110489;-68
2022/04/17 00:42:09;;;;;;;2.83;2.47;;;1.10;99.90;0.70;102154.00;;;;4859625;28;93101;-68
2022/04/17 00:44:37;;;;;;;3.57;2.87;;;1.00;99.90;0.70;102173.00;;;;4875918;28;95360;-68
2022/04/17 00:47:04;;;;;;;4.40;3.47;;;1.00;99.90;0.70;102164.00;;;;4875516;28;93799;-68
2022/04/17 00:49:30;;;;;;;6.57;3.53;;;1.00;99.90;0.60;102160.00;;;;4876822;28;93061;-68
2022/04/17 00:51:56;;;;;;;4.00;3.03;;;0.90;99.90;0.60;102168.00;;;;4876716;28;93113;-68
2022/04/17 00:54:25;;;;;;;3.93;3.57;;;0.90;99.90;0.50;102149.00;;;;4857591;28;123533;-68
2022/04/17 00:56:51;;;;;;;2.60;2.40;;;0.90;99.90;0.50;102150.00;;;;4875561;28;93666;-68
2022/04/17 00:59:18;;;;;;;6.17;3.00;;;0.90;99.90;0.50;102144.00;;;;4877124;28;92951;-68
2022/04/17 01:01:43;;;;;;;5.50;3.17;;;0.80;99.90;0.50;102160.00;;;;4876700;28;91950;-68
2022/04/17 01:04:09;;;;;;;7.83;3.43;;;0.80;99.90;0.50;102147.00;;;;4864722;28;93629;-68
2022/04/17 01:06:39;;;;;;;3.57;3.27;;;0.90;99.90;0.50;102153.00;;;;4857220;28;108380;-68
2022/04/17 01:09:06;;;;;;;2.90;2.70;;;0.80;99.90;0.40;102158.00;;;;4872139;28;93871;-68
2022/04/17 01:11:32;;;;;;;7.20;3.90;;;0.70;99.90;0.40;102157.00;;;;4861779;28;92821;-68
2022/04/17 01:13:58;;;;;;;3.90;3.50;;;0.70;99.90;0.30;102153.00;;;;4856987;28;93143;-68
2022/04/17 01:16:25;;;;;;;5.57;3.97;;;0.70;99.90;0.20;102150.00;;;;4842315;28;94751;-68
2022/04/17 01:19:12;;;;;;;3.93;3.63;;;0.60;99.90;0.20;102150.00;;;;4865344;28;109818;-68
2022/04/17 01:21:40;;;;;;;5.40;3.23;;;0.50;99.90;0.10;102149.00;;;;4876870;28;92826;-68
2022/04/17 01:26:57;;;;;;;4.60;2.73;;;0.40;99.90;0.00;102140.00;;;;4873283;28;91870;-68
2022/04/17 01:29:41;;;;;;;3.97;3.07;;;0.30;99.90;-0.10;102146.00;;;;4871868;28;92972;-68
2022/04/17 01:32:09;;;;;;;5.87;3.07;;;0.30;99.90;-0.10;102134.00;;;;4857319;28;94392;-68
2022/04/17 01:34:36;;;;;;;5.93;3.67;;;0.30;99.90;-0.10;102135.00;;;;4838109;28;112365;-68
2022/04/17 01:37:04;;;;;;;4.37;3.97;;;1.20;99.90;-0.10;102138.00;;;;4856481;28;94875;-68
2022/04/17 01:39:30;;;;;;;5.70;3.73;;;0.20;99.90;-0.20;102126.00;;;;4855351;28;92722;-68
2022/04/17 01:41:58;;;;;;;6.20;3.87;;;0.20;99.90;-0.20;102120.00;;;;4856924;28;93014;-68
2022/04/17 01:44:25;;;;;;;4.80;3.97;;;0.10;99.90;-0.30;102131.00;;;;4856392;28;94329;-68
2022/04/17 01:46:52;;;;;;;5.43;3.00;;;0.10;99.90;-0.40;102138.00;;;;4858599;28;92993;-68
2022/04/17 01:49:18;;;;;;;4.77;3.87;;;0.00;99.90;-0.40;102140.00;;;;4871065;28;92788;-68
2022/04/17 01:51:48;;;;;;;3.97;3.07;;;0.10;99.90;-0.50;102131.00;;;;4871267;28;92147;-68
2022/04/17 01:54:16;;;;;;;5.93;3.17;;;-0.10;99.90;-0.50;102132.00;;;;4872500;28;93278;-70
2022/04/17 01:56:43;;;;;;;4.43;3.10;;;-0.10;99.90;-0.50;102142.00;;;;4860947;28;93163;-69
2022/04/17 01:59:09;;;;;;;5.53;3.40;;;-0.10;99.90;-0.50;102139.00;;;;4874341;28;105304;-69
2022/04/17 02:01:37;;;;;;;4.57;3.70;;;-0.10;99.90;-0.50;102137.00;;;;4857851;28;92889;-69
2022/04/17 02:04:05;;;;;;;3.50;3.30;;;-0.20;99.90;-0.60;102148.00;;;;4874817;28;94243;-69
2022/04/17 02:06:32;;;;;;;3.20;2.77;;;-0.20;99.90;-0.60;102143.00;;;;4875117;28;93572;-69
2022/04/17 02:08:58;;;;;;;6.40;3.37;;;-0.20;99.90;-0.60;102143.00;;;;4874847;28;93056;-69
2022/04/17 02:11:25;;;;;;;3.07;2.70;;;-0.20;99.90;-0.60;102141.00;;;;4875296;28;108459;-69
2022/04/17 02:13:51;;;;;;;2.97;2.73;;;-0.20;99.90;-0.70;102138.00;;;;4857240;28;93153;-68
2022/04/17 02:16:18;;;;;;;4.53;3.17;;;0.30;99.90;-0.70;102136.00;;;;4863336;28;93656;-68
2022/04/17 02:18:45;;;;;;;5.00;3.57;;;-0.30;99.90;-0.80;102135.00;;;;4873554;28;92987;-68
2022/04/17 02:21:13;;;;;;;6.33;4.17;;;-0.40;99.90;-0.80;102128.00;;;;4875458;28;92884;-69
2022/04/17 02:23:41;;;;;;;3.40;3.10;;;-0.50;99.90;-0.90;102132.00;;;;4854353;28;95356;-69
2022/04/17 02:26:07;;;;;;;2.70;2.50;;;-0.30;99.90;-0.90;102136.00;;;;4868768;28;95006;-69
2022/04/17 02:28:35;;;;;;;3.17;2.97;;;-0.50;99.90;-0.90;102122.00;;;;4874055;28;103305;-69
2022/04/17 02:31:05;;;;;;;3.83;3.43;;;-0.50;99.90;-0.90;102125.00;;;;4875379;28;92989;-69
2022/04/17 02:33:31;;;;;;;6.53;3.77;;;-0.50;99.90;-0.90;102129.00;;;;4874398;28;93940;-69
2022/04/17 02:35:57;;;;;;;3.50;3.20;;;-0.50;99.90;-0.90;102121.00;;;;4874812;28;93040;-69
2022/04/17 02:38:24;;;;;;;4.00;3.60;;;-0.80;99.90;-0.90;102128.00;;;;4864466;28;110532;-69
2022/04/17 02:40:50;;;;;;;5.13;4.20;;;-0.50;99.90;-0.90;102111.00;;;;4858162;28;92122;-69
2022/04/17 02:43:28;;;;;;;2.87;2.67;;;-0.60;99.90;-0.90;102116.00;;;;4852500;28;105678;-69
2022/04/17 02:45:54;;;;;;;4.90;3.43;;;-0.50;99.90;-0.90;102121.00;;;;4837005;28;119413;-68
2022/04/17 02:48:20;;;;;;;3.20;2.10;;;-0.60;99.90;-0.90;102118.00;;;;4854232;28;110835;-68
2022/04/17 02:50:49;;;;;;;3.10;2.17;;;-0.50;99.90;-0.80;102117.00;;;;4855474;28;100320;-68
2022/04/17 02:53:18;;;;;;;7.67;3.60;;;-0.50;99.90;-0.70;102120.00;;;;4863215;28;93401;-69
2022/04/17 02:55:44;;;;;;;5.30;3.30;;;-0.40;99.90;-0.60;102109.00;;;;4873494;28;93069;-69
2022/04/17 02:58:10;;;;;;;5.10;3.33;;;-0.30;99.90;-0.60;102127.00;;;;4874687;28;93035;-68
2022/04/17 03:05:36;;;;;;;3.40;2.57;;;-0.30;99.90;-0.50;102135.00;;;;4875116;28;92700;-69
2022/04/17 03:06:10;;;;;;;2.67;2.47;;;-0.10;99.90;-0.50;102149.00;;;;4853121;28;92558;-68
2022/04/17 03:08:39;;;;;;;3.50;3.07;;;0.00;99.90;-0.40;102140.00;;;;4859519;28;93018;-68
2022/04/17 03:11:05;;;;;;;3.10;2.80;;;-0.10;99.90;-0.40;102142.00;;;;4857413;28;93022;-69
2022/04/17 03:13:31;;;;;;;4.57;2.70;;;0.00;99.90;-0.40;102130.00;;;;4854291;28;123577;-69
2022/04/17 03:15:56;;;;;;;3.70;3.30;;;-0.10;99.90;-0.40;102138.00;;;;4874413;28;93847;-68
2022/04/17 03:18:22;;;;;;;3.30;3.00;;;-0.10;99.90;-0.40;102136.00;;;;4872043;28;109472;-68
2022/04/17 03:20:48;;;;;;;3.47;3.17;;;0.00;99.90;-0.40;102128.00;;;;4862864;28;108488;-69
2022/04/17 03:23:14;;;;;;;6.97;3.97;;;0.00;99.90;-0.40;102132.00;;;;4854497;28;112421;-68
2022/04/17 03:25:41;;;;;;;5.83;4.27;;;0.00;99.90;-0.50;102130.00;;;;4854952;28;93855;-69
2022/04/17 03:28:06;;;;;;;5.53;3.00;;;-0.20;99.90;-0.60;102128.00;;;;4869756;28;92975;-69
2022/04/17 03:30:32;;;;;;;4.13;3.67;;;-0.20;99.90;-0.60;102128.00;;;;4875678;28;92494;-69
2022/04/17 03:32:59;;;;;;;4.17;3.77;;;0.40;99.90;-0.70;102118.00;;;;4859746;28;93178;-68
2022/04/17 03:35:26;;;;;;;4.27;3.47;;;-0.30;99.90;-0.70;102126.00;;;;4854876;28;93786;-68
2022/04/17 03:37:53;;;;;;;5.80;4.13;;;-0.40;99.90;-0.80;102121.00;;;;4854607;28;93715;-69
2022/04/17 03:40:19;;;;;;;4.40;3.30;;;-0.40;99.90;-0.80;102130.00;;;;4857275;28;93104;-68
2022/04/17 03:42:45;;;;;;;6.10;3.80;;;-0.50;99.90;-0.90;102117.00;;;;4853485;28;123285;-69
2022/04/17 03:45:14;;;;;;;4.17;3.30;;;-0.40;99.90;-0.90;102126.00;;;;4855420;28;93202;-70
2022/04/17 03:47:40;;;;;;;5.57;2.90;;;-0.50;99.90;-0.90;102130.00;;;;4855125;28;92785;-69
2022/04/17 03:50:07;;;;;;;4.20;3.80;;;-0.40;99.90;-0.90;102126.00;;;;4866904;28;92586;-69
2022/04/17 03:52:49;;;;;;;5.47;3.67;;;-0.60;99.90;-1.00;102117.00;;;;4872611;28;114655;-68
2022/04/17 03:55:15;;;;;;;4.97;3.33;;;-0.60;99.90;-1.00;102106.00;;;;4873749;28;92449;-70
2022/04/17 03:57:41;;;;;;;5.37;3.33;;;-0.60;99.90;-1.00;102112.00;;;;4875348;28;93040;-68
2022/04/17 04:00:12;;;;;;;3.97;3.57;;;-0.60;99.90;-1.00;102112.00;;;;4857226;28;97897;-69
2022/04/17 04:02:42;;;;;;;4.87;4.20;;;-0.60;99.90;-1.00;102104.00;;;;4853667;28;94881;-69
2022/04/17 04:05:11;;;;;;;3.53;3.23;;;-0.60;99.90;-1.00;102114.00;;;;4854790;28;94569;-69
2022/04/17 04:07:39;;;;;;;6.80;4.13;;;-0.60;99.90;-1.00;102114.00;;;;4857676;28;92835;-69
2022/04/17 04:10:07;;;;;;;4.07;3.43;;;-0.70;99.90;-1.00;102115.00;;;;4858670;28;92769;-68
2022/04/17 04:12:34;;;;;;;5.93;4.10;;;-0.60;99.90;-1.00;102117.00;;;;4873317;28;94894;-68
2022/04/17 04:14:59;;;;;;;4.23;2.97;;;-0.60;99.90;-1.00;102112.00;;;;4876763;28;110445;-69
2022/04/17 04:17:25;;;;;;;3.87;3.47;;;-0.70;99.90;-1.00;102116.00;;;;4875603;28;110200;-68
2022/04/17 04:19:51;;;;;;;5.27;3.00;;;-0.60;99.90;-1.00;102109.00;;;;4876857;28;110607;-69
2022/04/17 04:22:17;;;;;;;4.37;3.53;;;-0.60;99.90;-1.10;102109.00;;;;4892790;28;101294;-69
2022/04/17 04:24:43;;;;;;;4.03;3.40;;;-0.70;99.90;-1.10;102107.00;;;;4897009;28;94414;-69
2022/04/17 04:29:52;;;;;;;5.43;3.40;;;-0.70;99.90;-1.10;102105.00;;;;4874120;28;92758;-69
2022/04/17 04:32:22;;;;;;;4.50;2.83;;;-0.70;99.90;-1.00;102105.00;;;;4875393;28;121375;-69
2022/04/17 04:34:48;;;;;;;3.77;3.47;;;-0.60;99.90;-1.00;102105.00;;;;4877039;28;93752;-69
2022/04/17 04:37:14;;;;;;;5.77;3.63;;;-0.60;99.90;-1.00;102100.00;;;;4876853;28;93178;-69
2022/04/17 04:39:39;;;;;;;3.77;3.33;;;-0.60;99.90;-1.00;102091.00;;;;4877595;28;92850;-68
2022/04/17 04:42:05;;;;;;;3.33;3.00;;;-0.60;99.90;-0.90;102097.00;;;;4875699;28;122926;-69
2022/04/17 04:44:31;;;;;;;3.93;3.53;;;-0.60;99.90;-0.90;102084.00;;;;4852855;28;122806;-69
2022/04/17 04:46:57;;;;;;;5.70;3.47;;;-0.60;99.90;-0.90;102074.00;;;;4856384;28;94556;-69
2022/04/17 04:49:32;;;;;;;3.77;3.47;;;-0.50;99.90;-0.90;102087.00;;;;4857222;28;96147;-69
2022/04/17 04:52:03;;;;;;;3.50;3.20;;;-0.50;99.90;-0.90;102078.00;;;;4856412;28;94030;-69
2022/04/17 04:54:30;;;;;;;3.70;2.93;;;-0.50;99.90;-0.90;102075.00;;;;4861494;28;94535;-69
2022/04/17 04:56:57;;;;;;;4.20;3.80;;;-0.50;99.90;-0.90;102077.00;;;;4875542;28;92937;-69
2022/04/17 04:59:23;;;;;;;4.83;3.73;;;-0.50;99.90;-0.80;102091.00;;;;4876381;28;92838;-69
2022/04/17 05:01:50;;;;;;;5.33;2.73;;;-0.50;99.90;-0.70;102087.00;;;;4862830;28;93528;-69
2022/04/17 05:04:20;;;;;;;4.10;3.70;;;-0.30;99.90;-0.50;102084.00;;;;4875003;28;93898;-69
2022/04/17 05:07:04;;;;;;;4.17;3.40;;;-0.20;99.90;-0.40;102072.00;;;;4875745;28;93227;-69
2022/04/17 05:09:29;;;;;;;6.03;3.77;;;-0.10;99.90;-0.20;102074.00;;;;4863895;28;108399;-69
2022/04/17 05:11:55;;;;;;;3.17;2.93;;;0.10;99.90;0.00;102068.00;;;;4857140;28;123279;-69
2022/04/17 05:14:22;;;;;;;2.17;1.97;;;0.20;99.90;0.20;102069.00;;;;4858864;28;92965;-69
2022/04/17 05:16:48;;;;;;;3.30;2.57;;;0.50;99.90;0.40;102064.00;;;;4875685;28;93854;-69
2022/04/17 05:19:27;;;;;;;6.47;4.63;;;0.60;99.90;0.60;102068.00;;;;4875050;28;109106;-69
2022/04/17 05:21:58;;;;;;;6.07;4.07;;;0.90;99.90;0.80;102069.00;;;;4876758;28;94433;-69
2022/04/17 05:24:24;;;;;;;5.07;3.50;;;1.00;99.90;1.00;102059.00;;;;4865046;28;93022;-69
2022/04/17 05:26:50;;;;;;;6.50;3.67;;;1.20;99.90;1.10;102050.00;;;;4867589;28;92969;-69
2022/04/17 05:29:19;;;;;;;3.93;2.67;;;1.30;99.90;1.30;102049.00;;;;4858972;28;92845;-69
2022/04/17 05:31:46;;;;;;;2.53;2.33;;;1.50;99.90;1.50;102057.00;;;;4875627;28;92937;-69
2022/04/17 05:34:12;;;;;;;7.13;3.50;;;1.60;99.90;1.80;102061.00;;;;4876369;28;93738;-69
2022/04/17 05:36:38;;;;;;;4.03;3.00;;;1.90;99.90;2.00;102063.00;;;;4874834;28;110936;-69
2022/04/17 05:39:05;;;;;;;4.57;3.00;;;2.10;99.90;2.30;102063.00;;;;4874548;28;108889;-69
2022/04/17 05:41:32;;;;;;;6.10;3.30;;;2.70;99.90;2.50;102069.00;;;;4875090;28;111396;-69
2022/04/17 05:43:58;;;;;;;5.30;3.97;;;2.60;99.90;2.80;102075.00;;;;4873194;28;123530;-69
2022/04/17 05:46:27;;;;;;;4.83;3.23;;;2.80;99.90;3.00;102068.00;;;;4859207;28;92773;-69
2022/04/17 05:48:53;;;;;;;4.07;2.80;;;3.10;99.90;3.20;102073.00;;;;4875610;28;92875;-69
2022/04/17 05:51:19;;;;;;;12.40;4.90;;;3.20;99.90;3.50;102072.00;;;;4868184;28;121562;-69
2022/04/17 05:53:44;;;;;;;9.77;3.93;;;3.60;99.90;3.80;102075.00;;;;4858154;28;98154;-69
2022/04/17 05:56:11;;;;;;;7.83;3.70;;;3.90;99.90;4.10;102079.00;;;;4873514;28;109609;-69
2022/04/17 05:58:37;;;;;;;6.60;4.47;;;4.10;99.90;4.40;102074.00;;;;4875669;28;92379;-69
2022/04/17 06:01:02;;;;;;;3.67;3.27;;;4.70;99.90;4.70;102079.00;;;;4875987;28;93883;-69
2022/04/17 06:03:29;;;;;;;5.83;3.63;;;4.70;99.90;5.00;102078.00;;;;4874686;28;92791;-69
2022/04/17 06:05:55;;;;;;;7.17;3.73;;;5.00;99.90;5.30;102077.00;;;;4873211;28;93854;-69
2022/04/17 06:08:20;;;;;;;4.37;3.20;;;5.30;99.90;5.50;102084.00;;;;4855331;28;109155;-69
2022/04/17 06:10:46;;;;;;;4.97;2.83;;;5.90;99.90;5.80;102088.00;;;;4855628;28;123176;-69
2022/04/17 06:13:12;;;;;;;6.83;2.97;;;5.70;99.90;6.10;102087.00;;;;4854774;28;124344;-69
2022/04/17 06:15:39;;;;;;;3.87;3.00;;;6.10;99.40;6.30;102086.00;;;;4855966;28;109268;-70
2022/04/17 06:18:05;;;;;;;3.50;2.33;;;6.40;98.80;6.60;102095.00;;;;4856329;28;92870;-69
2022/04/17 06:20:31;;;;;;;2.80;2.33;;;6.60;98.10;6.90;102097.00;;;;4866876;28;122120;-70
2022/04/17 06:22:57;;;;;;;3.57;2.43;;;6.90;96.30;7.20;102093.00;;;;4860921;28;122969;-69
2022/04/17 06:25:22;;;;;;;2.63;2.37;;;7.10;95.60;7.40;102096.00;;;;4855639;28;109256;-69
2022/04/17 06:27:48;;;;;;;3.53;2.57;;;7.40;95.00;7.70;102094.00;;;;4861920;28;102577;-69
2022/04/17 06:30:17;;;;;;;3.23;2.90;;;7.70;94.20;7.90;102091.00;;;;4853745;28;122811;-69
2022/04/17 06:32:43;;;;;;;4.23;2.53;;;7.90;90.80;8.10;102090.00;;;;4855343;28;94752;-69
2022/04/17 06:35:13;;;;;;;4.00;2.80;;;8.00;87.80;8.10;102094.00;;;;4856186;28;94907;-69
2022/04/17 06:37:52;;;;;;;4.30;2.30;;;8.20;82.80;8.20;102086.00;;;;4856646;28;92798;-69
2022/04/17 06:40:25;;;;;;;4.33;2.73;;;8.20;82.50;8.30;102089.00;;;;4874844;28;93607;-69
2022/04/17 06:42:55;;;;;;;3.63;2.40;;;8.40;82.20;8.60;102097.00;;;;4874146;28;93292;-70
2022/04/17 06:45:22;;;;;;;4.80;2.93;;;8.50;81.70;8.80;102089.00;;;;4874313;28;92986;-69
2022/04/17 06:47:48;;;;;;;5.57;3.33;;;8.80;81.50;9.10;102090.00;;;;4869326;28;98222;-70
2022/04/17 06:50:19;;;;;;;4.60;2.90;;;9.00;79.10;9.20;102089.00;;;;4863452;28;94584;-69
2022/04/17 06:52:45;;;;;;;6.70;2.77;;;9.20;78.00;9.50;102097.00;;;;4874249;28;93242;-69
2022/04/17 06:55:12;;;;;;;4.77;2.43;;;9.40;77.50;9.70;102097.00;;;;4874737;28;97134;-69
2022/04/17 06:57:44;;;;;;;5.10;2.27;;;9.60;69.90;9.70;102091.00;;;;4876058;28;92957;-69
2022/04/17 07:00:12;;;;;;;3.37;1.80;;;9.70;69.90;9.90;102096.00;;;;4894161;28;94087;-69
2022/04/17 07:02:39;;;;;;;7.17;2.60;;;9.90;70.70;10.10;102093.00;;;;4892076;28;116241;-69
2022/04/17 07:05:05;;;;;;;2.40;2.20;;;10.10;71.20;10.40;102101.00;;;;4878195;28;93308;-69
2022/04/17 07:07:32;;;;;;;5.37;2.77;;;10.30;71.10;10.70;102100.00;;;;4874200;28;92789;-69
2022/04/17 07:09:58;;;;;;;2.93;2.27;;;10.60;70.70;11.00;102100.00;;;;4861925;28;94096;-69
2022/04/17 07:12:24;;;;;;;2.77;2.30;;;10.90;69.70;11.20;102110.00;;;;4852206;28;93793;-69
2022/04/17 07:14:50;;;;;;;4.57;2.43;;;11.20;69.00;11.50;102099.00;;;;4868483;28;92902;-67
2022/04/17 07:17:16;;;;;;;3.97;2.43;;;11.40;66.30;11.60;102104.00;;;;4868223;28;92830;-69
2022/04/17 07:19:42;;;;;;;2.57;2.20;;;11.50;64.50;11.70;102101.00;;;;4868631;28;123094;-68
2022/04/17 07:22:08;;;;;;;4.60;2.63;;;11.70;63.90;11.80;102108.00;;;;4868931;28;94006;-69
2022/04/17 07:24:33;;;;;;;4.17;2.17;;;11.80;62.90;12.00;102110.00;;;;4871965;28;92849;-68
2022/04/17 07:27:00;;;;;;;2.17;1.70;;;11.90;61.40;12.10;102104.00;;;;4868484;28;107036;-68
2022/04/17 07:29:26;;;;;;;3.03;2.00;;;12.00;61.20;12.30;102116.00;;;;4853522;28;93174;-68
2022/04/17 07:31:53;;;;;;;3.17;2.23;;;12.20;60.90;12.50;102114.00;;;;4870634;28;93058;-68
2022/04/17 07:34:20;;;;;;;3.70;2.40;;;12.40;59.80;12.70;102110.00;;;;4871048;28;93077;-68
2022/04/17 07:36:54;;;;;;;5.90;2.37;;;12.60;58.70;13.00;102101.00;;;;4870806;28;91935;-68
2022/04/17 07:39:22;;;;;;;7.13;2.40;;;12.80;58.70;13.20;102114.00;;;;4871174;28;93225;-67
2022/04/17 07:41:48;;;;;;;3.20;2.23;;;13.10;57.60;13.40;102110.00;;;;4871294;28;93747;-67
2022/04/17 07:44:14;;;;;;;2.70;2.07;;;13.30;57.30;13.60;102099.00;;;;4871703;28;101462;-68
2022/04/17 07:46:41;;;;;;;3.83;2.10;;;13.50;57.40;13.90;102106.00;;;;4872829;28;92981;-68
2022/04/17 07:49:07;;;;;;;5.30;2.20;;;13.80;57.20;14.20;102100.00;;;;4872779;28;112602;-70
2022/04/17 07:51:33;;;;;;;2.33;1.53;;;14.10;55.30;14.50;102106.00;;;;4873754;28;92861;-68
2022/04/17 07:54:01;;;;;;;2.23;1.33;;;14.30;54.90;14.70;102103.00;;;;4867599;28;110155;-68
2022/04/17 07:56:27;;;;;;;1.90;1.20;;;14.50;52.70;14.70;102102.00;;;;4873797;28;93023;-68
2022/04/17 07:58:53;;;;;;;2.97;1.83;;;14.60;53.10;14.90;102101.00;;;;4872202;28;122713;-68
2022/04/17 08:01:18;;;;;;;2.80;0.87;;;14.80;53.30;15.00;102099.00;;;;4874094;28;93665;-68
2022/04/17 08:06:10;;;;;;;2.92;1.83;;;15.00;51.30;15.10;102096.00;;;;4870607;28;102349;-69
2022/04/17 08:08:39;;;;;;;1.55;0.88;;;15.00;51.10;15.10;102090.00;;;;4868293;28;94643;-68
2022/04/17 08:11:06;;;;;;;1.50;0.68;;;15.10;49.20;15.10;102092.00;;;;4867444;28;94960;-69
2022/04/17 08:13:33;;;;;;;1.67;1.23;;;15.10;49.40;15.20;102099.00;;;;4871087;28;97547;-67
2022/04/17 08:15:59;;;;;;;2.15;0.73;;;15.20;49.00;15.30;102092.00;;;;4873982;28;92995;-67
2022/04/17 08:18:25;;;;;;;5.57;0.93;;;15.20;48.40;15.40;102082.00;;;;4869359;28;94139;-69
2022/04/17 08:20:51;;;;;;;0.82;0.70;;;15.30;48.40;15.40;102086.00;;;;4852613;28;114836;-68
2022/04/17 08:23:17;;;;;;;1.17;1.08;;;15.40;47.90;15.60;102079.00;;;;4872857;28;103797;-70
2022/04/17 08:25:43;;;;;;;0.95;0.70;;;15.50;47.50;15.60;102077.00;;;;4873759;28;92258;-75
2022/04/17 08:28:09;;;;;;;2.67;0.95;;;15.60;46.60;15.60;102076.00;;;;4837888;28;118818;-75
2022/04/17 08:30:35;;;;;;;2.55;0.90;;;15.60;46.20;15.60;102070.00;;;;4854135;28;122088;-74
2022/04/17 08:33:04;;;;;;;0.88;0.68;;;15.60;46.00;15.50;102075.00;;;;4871424;28;94074;-75
2022/04/17 08:35:30;;;;;;;1.48;1.05;;;15.50;45.40;15.40;102066.00;;;;4835381;28;93108;-75
2022/04/17 08:38:00;;;;;;;2.70;0.95;;;15.50;44.40;15.30;102077.00;;;;4870201;28;110227;-74
2022/04/17 08:40:27;;;;;;;1.10;0.98;;;15.30;44.60;15.40;102077.00;;;;4870134;28;93168;-75
2022/04/17 08:43:00;;;;;;;2.92;1.27;;;15.30;45.40;15.50;102074.00;;;;4848962;28;93112;-76
2022/04/17 08:45:26;;;;;;;2.67;0.80;;;15.40;44.10;15.40;102071.00;;;;4855812;28;92811;-77
2022/04/17 08:47:54;;;;;;;1.10;0.93;;;15.40;44.70;15.60;102066.00;;;;4853323;28;100646;-75
2022/04/17 08:50:21;;;;;;;1.23;1.10;;;15.40;45.00;15.70;102074.00;;;;4855513;28;92939;-75
2022/04/17 08:52:52;;;;;;;1.45;0.68;;;15.50;45.00;15.80;102065.00;;;;4871162;28;95254;-76
2022/04/17 08:55:18;;;;;;;1.05;0.80;;;15.60;44.90;15.80;102070.00;;;;4865779;28;93091;-75
2022/04/17 08:57:44;;;;;;;2.05;1.23;;;15.70;44.70;15.90;102059.00;;;;4868640;28;94491;-76
2022/04/17 09:00:16;;;;;;;3.38;0.95;;;15.70;44.20;15.90;102068.00;;;;4870059;28;112543;-75
2022/04/17 09:02:42;;;;;;;1.42;0.85;;;15.80;44.00;15.90;102058.00;;;;4871194;28;93120;-76
2022/04/17 09:05:10;;;;;;;1.17;1.08;;;15.80;42.50;15.80;102050.00;;;;4872897;28;92806;-74
2022/04/17 09:07:47;;;;;;;1.45;0.85;;;15.70;42.50;15.90;102047.00;;;;4852451;28;108583;-74
2022/04/17 09:10:28;;;;;;;4.22;0.82;;;15.70;43.20;15.90;102052.00;;;;4854802;28;93323;-75
2022/04/17 09:12:57;;;;;;;2.43;1.23;;;15.70;41.20;15.70;102045.00;;;;4865965;28;92875;-75
2022/04/17 09:15:34;;;;;;;1.65;0.70;;;15.60;40.70;15.40;102051.00;;;;4855276;28;92465;-76
2022/04/17 09:18:01;;;;;;;0.73;0.57;;;15.40;40.70;15.40;102036.00;;;;4854180;28;93511;-74
2022/04/17 09:20:28;;;;;;;0.98;0.90;;;15.20;41.10;15.10;102040.00;;;;4872161;28;114784;-75
2022/04/17 09:22:59;;;;;;;0.82;0.82;;;15.00;40.60;15.00;102032.00;;;;4853538;28;94748;-74
2022/04/17 09:25:26;;;;;;;0.63;0.63;;;14.80;41.70;15.00;102024.00;;;;4854626;28;92978;-73
2022/04/17 09:28:05;;;;;;;0.53;0.53;;;14.80;42.00;14.70;102018.00;;;;4870937;28;94623;-73
2022/04/17 09:30:34;;;;;;;2.33;0.97;;;14.60;41.80;14.60;102023.00;;;;4870417;28;93702;-74
2022/04/17 09:33:05;;;;;;;1.63;1.23;;;14.50;42.60;14.70;102017.00;;;;4852481;28;94274;-74
2022/04/17 09:35:32;;;;;;;3.57;1.30;;;14.50;42.50;14.70;102010.00;;;;4854077;28;92884;-70
2022/04/17 09:37:59;;;;;;;1.03;0.90;;;14.50;42.50;14.90;102013.00;;;;4853714;28;93256;-75
2022/04/17 09:40:28;;;;;;;1.07;0.93;;;14.50;43.30;15.20;102018.00;;;;4872345;28;93817;-75
2022/04/17 09:43:16;;;;;;;6.60;1.40;;;14.80;43.60;15.60;102011.00;;;;4871001;28;92753;-75
2022/04/17 09:46:08;;;;;;;0.70;0.70;;;15.10;43.10;16.10;102006.00;;;;4838299;28;93027;-75
2022/04/17 09:48:39;;;;;;;0.73;0.50;;;15.50;43.40;16.40;102007.00;;;;4869462;28;105419;-77
2022/04/17 09:51:26;;;;;;;1.23;0.50;;;15.90;43.00;16.80;102001.00;;;;4836099;28;103829;-74
2022/04/17 09:54:04;;;;;;;0.98;0.93;;;16.60;41.40;17.10;102003.00;;;;4837256;28;93361;-73
2022/04/17 09:56:37;;;;;;;2.17;0.70;;;16.60;42.10;17.50;101995.00;;;;4848198;28;93176;-74
2022/04/17 09:59:31;;;;;;;1.10;0.90;;;16.90;42.30;18.00;101986.00;;;;4871060;28;93517;-74
2022/04/17 10:01:57;;;;;;;1.83;1.17;;;17.40;41.80;18.30;101991.00;;;;4870536;28;93355;-75
2022/04/17 10:04:25;;;;;;;1.67;0.95;;;17.70;41.20;18.70;101992.00;;;;4867469;28;110859;-75
2022/04/17 10:06:59;;;;;;;1.67;0.95;;;18.00;40.40;18.90;101984.00;;;;4854029;28;92440;-75
2022/04/17 10:09:26;;;;;;;1.92;1.25;;;18.30;40.10;19.10;101988.00;;;;4870844;28;93604;-75
2022/04/17 10:11:52;;;;;;;1.55;0.95;;;18.50;39.80;19.30;101987.00;;;;4837133;28;93870;-74
2022/04/17 10:14:18;;;;;;;1.45;1.00;;;18.70;40.00;19.60;101973.00;;;;4837073;28;100968;-73
2022/04/17 10:16:47;;;;;;;1.40;1.20;;;19.00;39.20;19.50;101980.00;;;;4871613;28;92975;-74
2022/04/17 10:19:19;;;;;;;1.75;0.93;;;19.00;37.70;19.50;101982.00;;;;4851771;28;94370;-75
2022/04/17 10:21:46;;;;;;;2.22;0.95;;;19.00;38.70;19.70;101963.00;;;;4852014;28;93184;-75
2022/04/17 10:24:18;;;;;;;1.20;1.10;;;19.10;38.20;19.90;101962.00;;;;4854323;28;93083;-73
2022/04/17 10:26:49;;;;;;;1.95;1.20;;;19.60;39.00;20.20;101972.00;;;;4871185;28;92742;-74
2022/04/17 10:29:48;;;;;;;1.83;1.10;;;19.60;38.30;20.10;101960.00;;;;4869081;28;93205;-75
2022/04/17 10:32:32;;;;;;;1.23;0.95;;;19.60;37.20;19.80;101962.00;;;;4870179;28;111375;-73
2022/04/17 10:35:17;;;;;;;4.72;1.30;;;19.40;36.20;19.80;101965.00;;;;4871149;28;92967;-74
2022/04/17 10:37:50;;;;;;;1.45;1.17;;;19.40;37.00;20.00;101963.00;;;;4837015;28;99104;-74
2022/04/17 10:40:18;;;;;;;1.92;1.02;;;19.50;37.60;20.20;101954.00;;;;4851727;28;114174;-74
2022/04/17 10:42:59;;;;;;;2.50;1.20;;;19.60;36.50;20.30;101948.00;;;;4869052;28;94707;-73
2022/04/17 10:45:26;;;;;;;1.52;1.40;;;19.70;37.10;20.50;101945.00;;;;4850018;28;92933;-73
2022/04/17 10:48:12;;;;;;;0.80;0.75;;;19.90;36.70;20.40;101945.00;;;;4867882;28;92694;-72
2022/04/17 10:50:43;;;;;;;1.60;0.93;;;19.90;35.20;20.20;101946.00;;;;4836323;28;94334;-73
2022/04/17 10:53:29;;;;;;;2.08;0.77;;;19.80;35.50;20.20;101939.00;;;;4868903;28;111435;-74
2022/04/17 10:56:15;;;;;;;1.15;0.93;;;19.70;35.60;20.30;101939.00;;;;4834545;28;92930;-74
2022/04/17 10:58:50;;;;;;;1.23;0.73;;;19.80;35.80;20.30;101946.00;;;;4852779;28;92348;-76
2022/04/17 11:01:16;;;;;;;1.40;0.82;;;19.80;36.40;20.30;101948.00;;;;4852558;28;95577;-72
2022/04/17 11:03:54;;;;;;;2.75;1.00;;;19.80;37.00;20.50;101945.00;;;;4867924;28;123452;-73
2022/04/17 11:06:30;;;;;;;1.55;1.02;;;19.90;37.00;20.50;101932.00;;;;4866144;28;93729;-76